sensor_id;sensor_type;location;lat;lon;timestamp;P1;durP1;ratioP1;P2;durP2;ratioP2
13014;SDS011;6573;57.696;11.950;2023-12-04T00:01:00;9.37;;;8.47;;
13014;SDS011;6573;57.696;11.950;2023-12-04T00:03:30;8.93;;;8.03;;
13014;SDS011;6573;57.696;11.950;2023-12-04T00:06:06;8.13;;;7.40;;
13014;SDS011;6573;57.696;11.950;2023-12-04T00:08:37;7.90;;;7.10;;
13014;SDS011;6573;57.696;11.950;2023-12-04T00:11:14;7.90;;;7.10;;
13014;SDS011;6573;57.696;11.950;2023-12-04T00:13:44;8.60;;;7.80;;
13014;SDS011;6573;57.696;11.950;2023-12-04T00:16:14;7.20;;;6.50;;
13014;SDS011;6573;57.696;11.950;2023-12-04T00:18:44;8.40;;;7.40;;
13014;SDS011;6573;57.696;11.950;2023-12-04T00:21:16;8.43;;;6.97;;
13014;SDS011;6573;57.696;11.950;2023-12-04T00:23:46;7.70;;;6.87;;
13014;SDS011;6573;57.696;11.950;2023-12-04T00:26:19;7.10;;;6.50;;
13014;SDS011;6573;57.696;11.950;2023-12-04T00:28:47;6.70;;;6.10;;
13014;SDS011;6573;57.696;11.950;2023-12-04T00:31:19;6.60;;;6.00;;
13014;SDS011;6573;57.696;11.950;2023-12-04T00:33:57;7.10;;;6.50;;
13014;SDS011;6573;57.696;11.950;2023-12-04T00:36:27;6.60;;;6.00;;
13014;SDS011;6573;57.696;11.950;2023-12-04T00:38:59;6.37;;;5.80;;
13014;SDS011;6573;57.696;11.950;2023-12-04T00:41:32;6.43;;;5.43;;
13014;SDS011;6573;57.696;11.950;2023-12-04T00:44:03;5.73;;;5.23;;
13014;SDS011;6573;57.696;11.950;2023-12-04T00:46:59;6.23;;;5.63;;
13014;SDS011;6573;57.696;11.950;2023-12-04T00:49:29;6.10;;;5.50;;
13014;SDS011;6573;57.696;11.950;2023-12-04T00:52:07;5.70;;;5.10;;
13014;SDS011;6573;57.696;11.950;2023-12-04T00:54:51;5.43;;;4.83;;
13014;SDS011;6573;57.696;11.950;2023-12-04T00:57:41;5.30;;;4.80;;
13014;SDS011;6573;57.696;11.950;2023-12-04T01:00:10;5.60;;;5.10;;
13014;SDS011;6573;57.696;11.950;2023-12-04T01:02:45;4.93;;;4.53;;
13014;SDS011;6573;57.696;11.950;2023-12-04T01:05:16;5.50;;;5.00;;
13014;SDS011;6573;57.696;11.950;2023-12-04T01:07:52;4.93;;;4.53;;
13014;SDS011;6573;57.696;11.950;2023-12-04T01:10:22;5.13;;;4.63;;
13014;SDS011;6573;57.696;11.950;2023-12-04T01:12:56;4.80;;;4.40;;
13014;SDS011;6573;57.696;11.950;2023-12-04T01:15:26;4.80;;;4.40;;
13014;SDS011;6573;57.696;11.950;2023-12-04T01:17:56;4.93;;;4.53;;
13014;SDS011;6573;57.696;11.950;2023-12-04T01:20:27;4.73;;;4.33;;
13014;SDS011;6573;57.696;11.950;2023-12-04T01:22:56;5.17;;;4.77;;
13014;SDS011;6573;57.696;11.950;2023-12-04T01:25:26;4.70;;;4.30;;
13014;SDS011;6573;57.696;11.950;2023-12-04T01:27:58;4.70;;;4.30;;
13014;SDS011;6573;57.696;11.950;2023-12-04T01:30:28;4.37;;;3.97;;
13014;SDS011;6573;57.696;11.950;2023-12-04T01:32:59;4.90;;;4.40;;
13014;SDS011;6573;57.696;11.950;2023-12-04T01:35:27;4.37;;;3.97;;
13014;SDS011;6573;57.696;11.950;2023-12-04T01:37:56;4.20;;;3.90;;
13014;SDS011;6573;57.696;11.950;2023-12-04T01:40:26;4.47;;;4.07;;
13014;SDS011;6573;57.696;11.950;2023-12-04T01:42:55;4.20;;;3.90;;
13014;SDS011;6573;57.696;11.950;2023-12-04T01:45:26;4.77;;;4.37;;
13014;SDS011;6573;57.696;11.950;2023-12-04T01:47:56;4.60;;;4.20;;
13014;SDS011;6573;57.696;11.950;2023-12-04T01:50:27;4.80;;;4.40;;
13014;SDS011;6573;57.696;11.950;2023-12-04T01:52:56;5.00;;;4.50;;
13014;SDS011;6573;57.696;11.950;2023-12-04T01:55:27;4.53;;;4.13;;
13014;SDS011;6573;57.696;11.950;2023-12-04T01:58:00;4.60;;;4.20;;
13014;SDS011;6573;57.696;11.950;2023-12-04T02:00:48;4.30;;;3.90;;
13014;SDS011;6573;57.696;11.950;2023-12-04T02:03:19;4.10;;;3.80;;
13014;SDS011;6573;57.696;11.950;2023-12-04T02:05:50;4.60;;;4.20;;
13014;SDS011;6573;57.696;11.950;2023-12-04T02:08:20;4.33;;;3.93;;
13014;SDS011;6573;57.696;11.950;2023-12-04T02:10:50;4.63;;;4.23;;
13014;SDS011;6573;57.696;11.950;2023-12-04T02:13:20;4.60;;;4.20;;
13014;SDS011;6573;57.696;11.950;2023-12-04T02:15:56;4.37;;;3.97;;
13014;SDS011;6573;57.696;11.950;2023-12-04T02:18:27;4.50;;;4.10;;
13014;SDS011;6573;57.696;11.950;2023-12-04T02:20:57;4.90;;;4.40;;
13014;SDS011;6573;57.696;11.950;2023-12-04T02:23:41;5.53;;;4.47;;
13014;SDS011;6573;57.696;11.950;2023-12-04T02:26:15;5.10;;;4.47;;
13014;SDS011;6573;57.696;11.950;2023-12-04T02:28:51;5.03;;;4.40;;
13014;SDS011;6573;57.696;11.950;2023-12-04T02:31:30;4.67;;;4.27;;
13014;SDS011;6573;57.696;11.950;2023-12-04T02:34:06;4.70;;;4.30;;
13014;SDS011;6573;57.696;11.950;2023-12-04T02:36:40;4.27;;;3.97;;
13014;SDS011;6573;57.696;11.950;2023-12-04T02:39:24;5.43;;;4.20;;
13014;SDS011;6573;57.696;11.950;2023-12-04T02:42:00;4.63;;;3.97;;
13014;SDS011;6573;57.696;11.950;2023-12-04T02:44:32;4.00;;;3.70;;
13014;SDS011;6573;57.696;11.950;2023-12-04T02:47:05;4.27;;;3.87;;
13014;SDS011;6573;57.696;11.950;2023-12-04T02:49:34;4.03;;;3.63;;
13014;SDS011;6573;57.696;11.950;2023-12-04T02:52:06;3.47;;;3.20;;
13014;SDS011;6573;57.696;11.950;2023-12-04T02:54:38;3.73;;;3.40;;
13014;SDS011;6573;57.696;11.950;2023-12-04T02:57:11;4.20;;;3.80;;
13014;SDS011;6573;57.696;11.950;2023-12-04T03:02:13;4.27;;;3.87;;
13014;SDS011;6573;57.696;11.950;2023-12-04T03:04:45;3.70;;;3.40;;
13014;SDS011;6573;57.696;11.950;2023-12-04T03:07:19;4.10;;;3.80;;
13014;SDS011;6573;57.696;11.950;2023-12-04T03:09:51;3.93;;;3.63;;
13014;SDS011;6573;57.696;11.950;2023-12-04T03:12:24;3.90;;;3.50;;
13014;SDS011;6573;57.696;11.950;2023-12-04T03:14:58;4.20;;;3.77;;
13014;SDS011;6573;57.696;11.950;2023-12-04T03:17:37;3.73;;;3.43;;
13014;SDS011;6573;57.696;11.950;2023-12-04T03:20:10;4.00;;;3.70;;
13014;SDS011;6573;57.696;11.950;2023-12-04T03:22:48;4.20;;;3.80;;
13014;SDS011;6573;57.696;11.950;2023-12-04T03:25:30;3.90;;;3.60;;
13014;SDS011;6573;57.696;11.950;2023-12-04T03:28:06;3.83;;;3.53;;
13014;SDS011;6573;57.696;11.950;2023-12-04T03:30:36;4.57;;;3.60;;
13014;SDS011;6573;57.696;11.950;2023-12-04T03:33:07;4.40;;;4.00;;
13014;SDS011;6573;57.696;11.950;2023-12-04T03:35:37;3.90;;;3.60;;
13014;SDS011;6573;57.696;11.950;2023-12-04T03:38:07;3.80;;;3.50;;
13014;SDS011;6573;57.696;11.950;2023-12-04T03:40:36;3.70;;;3.40;;
13014;SDS011;6573;57.696;11.950;2023-12-04T03:46:14;3.70;;;3.40;;
13014;SDS011;6573;57.696;11.950;2023-12-04T03:48:47;3.40;;;3.10;;
13014;SDS011;6573;57.696;11.950;2023-12-04T03:51:19;3.13;;;2.93;;
13014;SDS011;6573;57.696;11.950;2023-12-04T03:53:54;3.30;;;3.03;;
13014;SDS011;6573;57.696;11.950;2023-12-04T03:56:26;3.37;;;3.07;;
13014;SDS011;6573;57.696;11.950;2023-12-04T03:58:58;3.23;;;2.93;;
13014;SDS011;6573;57.696;11.950;2023-12-04T04:01:38;3.80;;;3.50;;
13014;SDS011;6573;57.696;11.950;2023-12-04T04:04:17;3.93;;;3.60;;
13014;SDS011;6573;57.696;11.950;2023-12-04T04:06:50;3.93;;;3.53;;
13014;SDS011;6573;57.696;11.950;2023-12-04T04:09:36;3.87;;;3.57;;
13014;SDS011;6573;57.696;11.950;2023-12-04T04:12:19;3.30;;;3.00;;
13014;SDS011;6573;57.696;11.950;2023-12-04T04:14:53;3.50;;;3.20;;
13014;SDS011;6573;57.696;11.950;2023-12-04T04:17:37;3.20;;;2.90;;
13014;SDS011;6573;57.696;11.950;2023-12-04T04:20:13;3.03;;;2.73;;
13014;SDS011;6573;57.696;11.950;2023-12-04T04:22:47;3.90;;;3.60;;
13014;SDS011;6573;57.696;11.950;2023-12-04T04:25:20;4.00;;;3.70;;
13014;SDS011;6573;57.696;11.950;2023-12-04T04:27:53;3.93;;;3.57;;
13014;SDS011;6573;57.696;11.950;2023-12-04T04:30:23;4.27;;;3.87;;
13014;SDS011;6573;57.696;11.950;2023-12-04T04:33:11;3.83;;;3.53;;
13014;SDS011;6573;57.696;11.950;2023-12-04T04:35:58;4.40;;;4.00;;
13014;SDS011;6573;57.696;11.950;2023-12-04T04:38:43;4.37;;;3.97;;
13014;SDS011;6573;57.696;11.950;2023-12-04T04:41:17;4.30;;;3.70;;
13014;SDS011;6573;57.696;11.950;2023-12-04T04:43:48;4.17;;;3.77;;
13014;SDS011;6573;57.696;11.950;2023-12-04T04:46:17;4.10;;;3.80;;
13014;SDS011;6573;57.696;11.950;2023-12-04T04:48:51;3.47;;;3.20;;
13014;SDS011;6573;57.696;11.950;2023-12-04T04:51:25;3.60;;;3.30;;
13014;SDS011;6573;57.696;11.950;2023-12-04T04:53:56;3.17;;;2.93;;
13014;SDS011;6573;57.696;11.950;2023-12-04T04:56:39;3.43;;;3.13;;
13014;SDS011;6573;57.696;11.950;2023-12-04T04:59:22;3.63;;;3.33;;
13014;SDS011;6573;57.696;11.950;2023-12-04T05:01:56;3.33;;;3.10;;
13014;SDS011;6573;57.696;11.950;2023-12-04T05:04:39;3.50;;;3.20;;
13014;SDS011;6573;57.696;11.950;2023-12-04T05:07:11;3.53;;;3.23;;
13014;SDS011;6573;57.696;11.950;2023-12-04T05:09:56;3.30;;;3.00;;
13014;SDS011;6573;57.696;11.950;2023-12-04T05:12:40;3.50;;;3.20;;
13014;SDS011;6573;57.696;11.950;2023-12-04T05:15:24;3.40;;;3.10;;
13014;SDS011;6573;57.696;11.950;2023-12-04T05:17:57;3.67;;;3.37;;
13014;SDS011;6573;57.696;11.950;2023-12-04T05:24:06;3.67;;;3.37;;
13014;SDS011;6573;57.696;11.950;2023-12-04T05:26:57;3.60;;;3.30;;
13014;SDS011;6573;57.696;11.950;2023-12-04T05:29:54;3.50;;;3.20;;
13014;SDS011;6573;57.696;11.950;2023-12-04T05:32:30;3.70;;;3.40;;
13014;SDS011;6573;57.696;11.950;2023-12-04T05:35:03;3.83;;;3.53;;
13014;SDS011;6573;57.696;11.950;2023-12-04T05:40:52;4.00;;;3.70;;
13014;SDS011;6573;57.696;11.950;2023-12-04T05:43:48;4.20;;;3.80;;
13014;SDS011;6573;57.696;11.950;2023-12-04T05:46:30;4.00;;;3.70;;
13014;SDS011;6573;57.696;11.950;2023-12-04T05:49:14;4.20;;;3.90;;
13014;SDS011;6573;57.696;11.950;2023-12-04T05:51:43;4.47;;;4.17;;
13014;SDS011;6573;57.696;11.950;2023-12-04T05:54:17;4.50;;;4.10;;
13014;SDS011;6573;57.696;11.950;2023-12-04T05:56:46;4.97;;;4.50;;
13014;SDS011;6573;57.696;11.950;2023-12-04T05:59:24;4.80;;;4.40;;
13014;SDS011;6573;57.696;11.950;2023-12-04T06:01:54;4.40;;;4.10;;
13014;SDS011;6573;57.696;11.950;2023-12-04T06:04:24;4.60;;;4.20;;
13014;SDS011;6573;57.696;11.950;2023-12-04T06:06:57;4.83;;;4.43;;
13014;SDS011;6573;57.696;11.950;2023-12-04T06:09:29;4.70;;;4.30;;
13014;SDS011;6573;57.696;11.950;2023-12-04T06:12:00;4.50;;;4.10;;
13014;SDS011;6573;57.696;11.950;2023-12-04T06:14:44;4.60;;;4.20;;
13014;SDS011;6573;57.696;11.950;2023-12-04T06:17:19;4.73;;;4.33;;
13014;SDS011;6573;57.696;11.950;2023-12-04T06:20:18;5.50;;;4.57;;
13014;SDS011;6573;57.696;11.950;2023-12-04T06:22:47;4.27;;;3.87;;
13014;SDS011;6573;57.696;11.950;2023-12-04T06:25:19;4.70;;;4.30;;
13014;SDS011;6573;57.696;11.950;2023-12-04T06:27:49;5.10;;;4.60;;
13014;SDS011;6573;57.696;11.950;2023-12-04T06:30:19;4.90;;;4.40;;
13014;SDS011;6573;57.696;11.950;2023-12-04T06:32:48;5.73;;;4.80;;
13014;SDS011;6573;57.696;11.950;2023-12-04T06:35:19;6.20;;;4.87;;
13014;SDS011;6573;57.696;11.950;2023-12-04T06:37:49;5.20;;;4.70;;
13014;SDS011;6573;57.696;11.950;2023-12-04T06:40:38;5.93;;;5.30;;
13014;SDS011;6573;57.696;11.950;2023-12-04T06:43:25;8.73;;;5.33;;
13014;SDS011;6573;57.696;11.950;2023-12-04T06:46:00;5.20;;;4.70;;
13014;SDS011;6573;57.696;11.950;2023-12-04T06:48:45;6.17;;;4.83;;
13014;SDS011;6573;57.696;11.950;2023-12-04T06:51:21;5.43;;;4.63;;
13014;SDS011;6573;57.696;11.950;2023-12-04T06:53:55;4.90;;;4.50;;
13014;SDS011;6573;57.696;11.950;2023-12-04T06:56:28;4.67;;;4.20;;
13014;SDS011;6573;57.696;11.950;2023-12-04T06:58:59;4.50;;;4.10;;
13014;SDS011;6573;57.696;11.950;2023-12-04T07:01:35;4.37;;;3.97;;
13014;SDS011;6573;57.696;11.950;2023-12-04T07:04:19;4.50;;;4.10;;
13014;SDS011;6573;57.696;11.950;2023-12-04T07:06:59;4.43;;;4.07;;
13014;SDS011;6573;57.696;11.950;2023-12-04T07:09:32;5.03;;;4.10;;
13014;SDS011;6573;57.696;11.950;2023-12-04T07:12:07;4.50;;;4.10;;
13014;SDS011;6573;57.696;11.950;2023-12-04T07:14:38;4.80;;;4.23;;
13014;SDS011;6573;57.696;11.950;2023-12-04T07:17:08;4.37;;;3.70;;
13014;SDS011;6573;57.696;11.950;2023-12-04T07:19:40;4.40;;;3.93;;
13014;SDS011;6573;57.696;11.950;2023-12-04T07:22:14;4.33;;;3.93;;
13014;SDS011;6573;57.696;11.950;2023-12-04T07:24:46;4.50;;;3.97;;
13014;SDS011;6573;57.696;11.950;2023-12-04T07:27:16;4.70;;;4.00;;
13014;SDS011;6573;57.696;11.950;2023-12-04T07:29:46;4.60;;;4.20;;
13014;SDS011;6573;57.696;11.950;2023-12-04T07:32:16;4.70;;;4.30;;
13014;SDS011;6573;57.696;11.950;2023-12-04T07:34:50;5.50;;;4.37;;
13014;SDS011;6573;57.696;11.950;2023-12-04T07:37:19;5.27;;;4.00;;
13014;SDS011;6573;57.696;11.950;2023-12-04T07:39:49;5.57;;;4.40;;
13014;SDS011;6573;57.696;11.950;2023-12-04T07:42:20;4.90;;;4.40;;
13014;SDS011;6573;57.696;11.950;2023-12-04T07:44:50;6.03;;;3.80;;
13014;SDS011;6573;57.696;11.950;2023-12-04T07:47:21;4.30;;;3.90;;
13014;SDS011;6573;57.696;11.950;2023-12-04T07:49:51;4.40;;;4.00;;
13014;SDS011;6573;57.696;11.950;2023-12-04T07:52:22;4.70;;;4.00;;
13014;SDS011;6573;57.696;11.950;2023-12-04T07:54:57;4.17;;;3.77;;
13014;SDS011;6573;57.696;11.950;2023-12-04T07:57:27;4.20;;;3.80;;
13014;SDS011;6573;57.696;11.950;2023-12-04T08:00:00;6.63;;;5.33;;
13014;SDS011;6573;57.696;11.950;2023-12-04T08:02:28;3.90;;;3.60;;
13014;SDS011;6573;57.696;11.950;2023-12-04T08:04:58;4.23;;;3.83;;
13014;SDS011;6573;57.696;11.950;2023-12-04T08:07:41;4.40;;;4.00;;
13014;SDS011;6573;57.696;11.950;2023-12-04T08:10:14;4.10;;;3.70;;
13014;SDS011;6573;57.696;11.950;2023-12-04T08:12:46;4.20;;;3.80;;
13014;SDS011;6573;57.696;11.950;2023-12-04T08:15:17;4.00;;;3.70;;
13014;SDS011;6573;57.696;11.950;2023-12-04T08:17:47;4.20;;;3.80;;
13014;SDS011;6573;57.696;11.950;2023-12-04T08:20:17;3.93;;;3.63;;
13014;SDS011;6573;57.696;11.950;2023-12-04T08:23:01;3.67;;;3.37;;
13014;SDS011;6573;57.696;11.950;2023-12-04T08:25:30;4.40;;;4.00;;
13014;SDS011;6573;57.696;11.950;2023-12-04T08:28:01;4.20;;;3.80;;
13014;SDS011;6573;57.696;11.950;2023-12-04T08:30:31;4.33;;;3.93;;
13014;SDS011;6573;57.696;11.950;2023-12-04T08:33:00;6.50;;;3.90;;
13014;SDS011;6573;57.696;11.950;2023-12-04T08:35:29;4.07;;;3.70;;
13014;SDS011;6573;57.696;11.950;2023-12-04T08:38:00;3.90;;;3.60;;
13014;SDS011;6573;57.696;11.950;2023-12-04T08:40:29;4.00;;;3.70;;
13014;SDS011;6573;57.696;11.950;2023-12-04T08:43:01;3.97;;;3.60;;
13014;SDS011;6573;57.696;11.950;2023-12-04T08:45:30;3.90;;;3.60;;
13014;SDS011;6573;57.696;11.950;2023-12-04T08:48:00;3.80;;;3.50;;
13014;SDS011;6573;57.696;11.950;2023-12-04T08:50:30;3.83;;;3.53;;
13014;SDS011;6573;57.696;11.950;2023-12-04T08:53:00;4.40;;;4.00;;
13014;SDS011;6573;57.696;11.950;2023-12-04T08:55:29;4.07;;;3.77;;
13014;SDS011;6573;57.696;11.950;2023-12-04T08:57:58;4.10;;;3.70;;
13014;SDS011;6573;57.696;11.950;2023-12-04T09:00:28;3.83;;;3.53;;
13014;SDS011;6573;57.696;11.950;2023-12-04T09:02:58;4.40;;;4.00;;
13014;SDS011;6573;57.696;11.950;2023-12-04T09:05:36;4.90;;;4.50;;
13014;SDS011;6573;57.696;11.950;2023-12-04T09:08:05;4.50;;;4.10;;
13014;SDS011;6573;57.696;11.950;2023-12-04T09:10:37;4.13;;;3.83;;
13014;SDS011;6573;57.696;11.950;2023-12-04T09:13:26;6.20;;;4.57;;
13014;SDS011;6573;57.696;11.950;2023-12-04T09:15:57;4.33;;;4.00;;
13014;SDS011;6573;57.696;11.950;2023-12-04T09:18:25;5.70;;;4.00;;
13014;SDS011;6573;57.696;11.950;2023-12-04T09:20:54;3.47;;;3.17;;
13014;SDS011;6573;57.696;11.950;2023-12-04T09:23:23;4.93;;;3.40;;
13014;SDS011;6573;57.696;11.950;2023-12-04T09:25:54;3.50;;;3.20;;
13014;SDS011;6573;57.696;11.950;2023-12-04T09:28:22;4.00;;;3.63;;
13014;SDS011;6573;57.696;11.950;2023-12-04T09:30:51;3.77;;;3.30;;
13014;SDS011;6573;57.696;11.950;2023-12-04T09:33:24;3.47;;;3.17;;
13014;SDS011;6573;57.696;11.950;2023-12-04T09:35:54;4.27;;;3.27;;
13014;SDS011;6573;57.696;11.950;2023-12-04T09:38:24;3.53;;;3.23;;
13014;SDS011;6573;57.696;11.950;2023-12-04T09:40:53;3.30;;;3.00;;
13014;SDS011;6573;57.696;11.950;2023-12-04T09:43:31;3.40;;;3.10;;
13014;SDS011;6573;57.696;11.950;2023-12-04T09:46:01;3.53;;;3.23;;
13014;SDS011;6573;57.696;11.950;2023-12-04T09:48:32;3.70;;;3.20;;
13014;SDS011;6573;57.696;11.950;2023-12-04T09:51:08;3.67;;;3.33;;
13014;SDS011;6573;57.696;11.950;2023-12-04T09:53:46;3.60;;;3.30;;
13014;SDS011;6573;57.696;11.950;2023-12-04T09:56:22;3.40;;;3.10;;
13014;SDS011;6573;57.696;11.950;2023-12-04T09:58:57;3.40;;;3.10;;
13014;SDS011;6573;57.696;11.950;2023-12-04T10:01:27;3.50;;;3.07;;
13014;SDS011;6573;57.696;11.950;2023-12-04T10:04:02;3.50;;;3.20;;
13014;SDS011;6573;57.696;11.950;2023-12-04T10:06:32;3.30;;;3.00;;
13014;SDS011;6573;57.696;11.950;2023-12-04T10:09:01;3.30;;;3.00;;
13014;SDS011;6573;57.696;11.950;2023-12-04T10:11:30;3.20;;;2.90;;
13014;SDS011;6573;57.696;11.950;2023-12-04T10:14:04;5.03;;;3.30;;
13014;SDS011;6573;57.696;11.950;2023-12-04T10:16:43;3.40;;;3.10;;
13014;SDS011;6573;57.696;11.950;2023-12-04T10:19:20;4.33;;;3.03;;
13014;SDS011;6573;57.696;11.950;2023-12-04T10:21:53;2.40;;;2.20;;
13014;SDS011;6573;57.696;11.950;2023-12-04T10:24:27;2.50;;;2.30;;
13014;SDS011;6573;57.696;11.950;2023-12-04T10:26:57;3.13;;;2.30;;
13014;SDS011;6573;57.696;11.950;2023-12-04T10:29:27;3.30;;;3.00;;
13014;SDS011;6573;57.696;11.950;2023-12-04T10:32:00;3.23;;;2.40;;
13014;SDS011;6573;57.696;11.950;2023-12-04T10:34:35;3.03;;;2.77;;
13014;SDS011;6573;57.696;11.950;2023-12-04T10:37:04;3.40;;;1.97;;
13014;SDS011;6573;57.696;11.950;2023-12-04T10:39:35;2.60;;;2.40;;
13014;SDS011;6573;57.696;11.950;2023-12-04T10:42:26;3.13;;;2.60;;
13014;SDS011;6573;57.696;11.950;2023-12-04T10:45:11;3.00;;;2.70;;
13014;SDS011;6573;57.696;11.950;2023-12-04T10:47:41;4.13;;;3.13;;
13014;SDS011;6573;57.696;11.950;2023-12-04T10:50:15;3.53;;;2.47;;
13014;SDS011;6573;57.696;11.950;2023-12-04T10:52:44;2.53;;;2.33;;
13014;SDS011;6573;57.696;11.950;2023-12-04T10:55:15;2.57;;;2.10;;
13014;SDS011;6573;57.696;11.950;2023-12-04T10:57:44;2.77;;;2.57;;
13014;SDS011;6573;57.696;11.950;2023-12-04T11:00:16;3.33;;;2.60;;
13014;SDS011;6573;57.696;11.950;2023-12-04T11:02:46;4.10;;;2.53;;
13014;SDS011;6573;57.696;11.950;2023-12-04T11:05:18;2.73;;;2.53;;
13014;SDS011;6573;57.696;11.950;2023-12-04T11:07:50;3.33;;;3.03;;
13014;SDS011;6573;57.696;11.950;2023-12-04T11:10:45;4.50;;;2.80;;
13014;SDS011;6573;57.696;11.950;2023-12-04T11:13:17;3.23;;;2.93;;
13014;SDS011;6573;57.696;11.950;2023-12-04T11:15:52;2.87;;;2.57;;
13014;SDS011;6573;57.696;11.950;2023-12-04T11:18:25;3.23;;;2.60;;
13014;SDS011;6573;57.696;11.950;2023-12-04T11:21:02;4.30;;;3.30;;
13014;SDS011;6573;57.696;11.950;2023-12-04T11:23:38;4.07;;;3.17;;
13014;SDS011;6573;57.696;11.950;2023-12-04T11:26:07;4.03;;;2.90;;
13014;SDS011;6573;57.696;11.950;2023-12-04T11:28:37;3.10;;;2.80;;
13014;SDS011;6573;57.696;11.950;2023-12-04T11:31:07;3.27;;;2.97;;
13014;SDS011;6573;57.696;11.950;2023-12-04T11:33:37;3.90;;;3.10;;
13014;SDS011;6573;57.696;11.950;2023-12-04T11:36:09;3.23;;;3.00;;
13014;SDS011;6573;57.696;11.950;2023-12-04T11:38:43;3.50;;;3.20;;
13014;SDS011;6573;57.696;11.950;2023-12-04T11:41:15;3.80;;;3.50;;
13014;SDS011;6573;57.696;11.950;2023-12-04T11:43:50;3.30;;;3.00;;
13014;SDS011;6573;57.696;11.950;2023-12-04T11:46:19;4.00;;;3.60;;
13014;SDS011;6573;57.696;11.950;2023-12-04T11:48:53;4.30;;;3.90;;
13014;SDS011;6573;57.696;11.950;2023-12-04T11:54:21;4.00;;;3.60;;
13014;SDS011;6573;57.696;11.950;2023-12-04T11:56:57;5.30;;;4.60;;
13014;SDS011;6573;57.696;11.950;2023-12-04T11:59:27;5.53;;;4.90;;
13014;SDS011;6573;57.696;11.950;2023-12-04T12:01:57;4.80;;;4.40;;
13014;SDS011;6573;57.696;11.950;2023-12-04T12:04:27;4.63;;;4.20;;
13014;SDS011;6573;57.696;11.950;2023-12-04T12:07:02;5.40;;;4.47;;
13014;SDS011;6573;57.696;11.950;2023-12-04T12:09:35;5.17;;;4.63;;
13014;SDS011;6573;57.696;11.950;2023-12-04T12:12:18;5.10;;;4.60;;
13014;SDS011;6573;57.696;11.950;2023-12-04T12:14:48;6.20;;;4.63;;
13014;SDS011;6573;57.696;11.950;2023-12-04T12:17:17;5.77;;;4.80;;
13014;SDS011;6573;57.696;11.950;2023-12-04T12:19:45;6.67;;;5.10;;
13014;SDS011;6573;57.696;11.950;2023-12-04T12:22:17;6.30;;;5.20;;
13014;SDS011;6573;57.696;11.950;2023-12-04T12:24:47;5.97;;;5.27;;
13014;SDS011;6573;57.696;11.950;2023-12-04T12:27:16;5.93;;;5.30;;
13014;SDS011;6573;57.696;11.950;2023-12-04T12:29:48;5.93;;;5.13;;
13014;SDS011;6573;57.696;11.950;2023-12-04T12:32:16;6.13;;;5.20;;
13014;SDS011;6573;57.696;11.950;2023-12-04T12:34:45;6.77;;;5.70;;
13014;SDS011;6573;57.696;11.950;2023-12-04T12:37:17;6.67;;;5.63;;
13014;SDS011;6573;57.696;11.950;2023-12-04T12:39:46;6.80;;;6.10;;
13014;SDS011;6573;57.696;11.950;2023-12-04T12:42:21;7.20;;;6.27;;
13014;SDS011;6573;57.696;11.950;2023-12-04T12:44:51;6.80;;;6.07;;
13014;SDS011;6573;57.696;11.950;2023-12-04T12:47:25;7.83;;;6.43;;
13014;SDS011;6573;57.696;11.950;2023-12-04T12:49:55;8.30;;;6.33;;
13014;SDS011;6573;57.696;11.950;2023-12-04T12:52:28;7.67;;;6.87;;
13014;SDS011;6573;57.696;11.950;2023-12-04T12:55:00;8.10;;;7.13;;
13014;SDS011;6573;57.696;11.950;2023-12-04T12:57:33;8.03;;;6.53;;
13014;SDS011;6573;57.696;11.950;2023-12-04T13:00:06;8.00;;;7.03;;
13014;SDS011;6573;57.696;11.950;2023-12-04T13:02:37;8.47;;;6.67;;
13014;SDS011;6573;57.696;11.950;2023-12-04T13:05:06;9.50;;;7.30;;
13014;SDS011;6573;57.696;11.950;2023-12-04T13:07:42;11.67;;;10.47;;
13014;SDS011;6573;57.696;11.950;2023-12-04T13:10:13;10.33;;;8.10;;
13014;SDS011;6573;57.696;11.950;2023-12-04T13:12:42;9.10;;;8.20;;
13014;SDS011;6573;57.696;11.950;2023-12-04T13:15:10;9.03;;;7.70;;
13014;SDS011;6573;57.696;11.950;2023-12-04T13:17:40;9.97;;;8.13;;
13014;SDS011;6573;57.696;11.950;2023-12-04T13:20:23;10.20;;;8.33;;
13014;SDS011;6573;57.696;11.950;2023-12-04T13:22:55;8.43;;;7.33;;
13014;SDS011;6573;57.696;11.950;2023-12-04T13:25:24;10.37;;;8.17;;
13014;SDS011;6573;57.696;11.950;2023-12-04T13:27:56;9.93;;;8.10;;
13014;SDS011;6573;57.696;11.950;2023-12-04T13:30:24;8.70;;;7.60;;
13014;SDS011;6573;57.696;11.950;2023-12-04T13:32:53;9.47;;;8.20;;
13014;SDS011;6573;57.696;11.950;2023-12-04T13:35:21;11.30;;;9.30;;
13014;SDS011;6573;57.696;11.950;2023-12-04T13:37:51;10.23;;;8.77;;
13014;SDS011;6573;57.696;11.950;2023-12-04T13:40:24;11.80;;;9.43;;
13014;SDS011;6573;57.696;11.950;2023-12-04T13:42:58;12.30;;;10.07;;
13014;SDS011;6573;57.696;11.950;2023-12-04T13:45:44;12.03;;;10.17;;
13014;SDS011;6573;57.696;11.950;2023-12-04T13:48:13;13.77;;;9.73;;
13014;SDS011;6573;57.696;11.950;2023-12-04T13:50:43;14.30;;;10.87;;
13014;SDS011;6573;57.696;11.950;2023-12-04T13:53:12;13.90;;;10.73;;
13014;SDS011;6573;57.696;11.950;2023-12-04T13:55:47;13.73;;;11.10;;
13014;SDS011;6573;57.696;11.950;2023-12-04T13:58:39;14.27;;;11.10;;
13014;SDS011;6573;57.696;11.950;2023-12-04T14:01:11;11.33;;;10.13;;
13014;SDS011;6573;57.696;11.950;2023-12-04T14:03:52;12.77;;;10.87;;
13014;SDS011;6573;57.696;11.950;2023-12-04T14:06:30;13.17;;;10.10;;
13014;SDS011;6573;57.696;11.950;2023-12-04T14:09:04;13.60;;;9.77;;
13014;SDS011;6573;57.696;11.950;2023-12-04T14:11:46;13.00;;;10.17;;
13014;SDS011;6573;57.696;11.950;2023-12-04T14:14:18;11.97;;;10.10;;
13014;SDS011;6573;57.696;11.950;2023-12-04T14:16:48;14.50;;;10.70;;
13014;SDS011;6573;57.696;11.950;2023-12-04T14:19:22;13.30;;;10.80;;
13014;SDS011;6573;57.696;11.950;2023-12-04T14:21:54;13.93;;;11.57;;
13014;SDS011;6573;57.696;11.950;2023-12-04T14:24:47;14.63;;;10.87;;
13014;SDS011;6573;57.696;11.950;2023-12-04T14:30:24;15.30;;;11.40;;
13014;SDS011;6573;57.696;11.950;2023-12-04T14:33:04;15.23;;;11.80;;
13014;SDS011;6573;57.696;11.950;2023-12-04T14:35:34;17.07;;;12.67;;
13014;SDS011;6573;57.696;11.950;2023-12-04T14:38:09;15.73;;;12.47;;
13014;SDS011;6573;57.696;11.950;2023-12-04T14:40:48;17.00;;;13.13;;
13014;SDS011;6573;57.696;11.950;2023-12-04T14:43:28;15.77;;;12.37;;
13014;SDS011;6573;57.696;11.950;2023-12-04T14:45:57;18.17;;;13.10;;
13014;SDS011;6573;57.696;11.950;2023-12-04T14:48:42;16.73;;;12.53;;
13014;SDS011;6573;57.696;11.950;2023-12-04T14:51:26;16.87;;;13.47;;
13014;SDS011;6573;57.696;11.950;2023-12-04T14:53:58;19.20;;;13.10;;
13014;SDS011;6573;57.696;11.950;2023-12-04T14:56:47;17.93;;;13.50;;
13014;SDS011;6573;57.696;11.950;2023-12-04T14:59:39;15.60;;;13.33;;
13014;SDS011;6573;57.696;11.950;2023-12-04T15:02:45;18.03;;;13.70;;
13014;SDS011;6573;57.696;11.950;2023-12-04T15:05:43;18.40;;;14.10;;
13014;SDS011;6573;57.696;11.950;2023-12-04T15:08:44;16.07;;;13.00;;
13014;SDS011;6573;57.696;11.950;2023-12-04T15:11:41;18.57;;;13.70;;
13014;SDS011;6573;57.696;11.950;2023-12-04T15:14:44;16.20;;;13.00;;
13014;SDS011;6573;57.696;11.950;2023-12-04T15:17:36;17.53;;;13.37;;
13014;SDS011;6573;57.696;11.950;2023-12-04T15:20:18;17.03;;;12.87;;
13014;SDS011;6573;57.696;11.950;2023-12-04T15:23:10;15.63;;;13.03;;
13014;SDS011;6573;57.696;11.950;2023-12-04T15:25:42;18.97;;;13.40;;
13014;SDS011;6573;57.696;11.950;2023-12-04T15:28:25;16.40;;;13.03;;
13014;SDS011;6573;57.696;11.950;2023-12-04T15:31:01;18.67;;;13.83;;
13014;SDS011;6573;57.696;11.950;2023-12-04T15:33:48;16.77;;;13.03;;
13014;SDS011;6573;57.696;11.950;2023-12-04T15:36:22;19.63;;;13.57;;
13014;SDS011;6573;57.696;11.950;2023-12-04T15:39:03;19.50;;;13.23;;
13014;SDS011;6573;57.696;11.950;2023-12-04T15:41:59;19.40;;;13.77;;
13014;SDS011;6573;57.696;11.950;2023-12-04T15:44:32;19.37;;;13.63;;